Nearby METAR Reports

 

KLOT - Romeoville/Chi, Illinois, USA
Distance from station: N 3mi, 5km
Updated: Thu, 20-Sep-2018 7:35am CDT
Mist, Partly cloudy
Mist, Partly cloudy
 Wind from calm
Wind: Calm
Temperature: 68°F , 20°C
Dew Point: 68°F , 20°C
Humidity: 100%
Barometer: 29.97 inHg , 1014.9 hPa
Summary: Mist
Clouds: Partly cloudy
Visibility: 5 miles , 8 km
Cloud details: Partly cloudy 5000 ft
2018/09/20 12:35 KLOT 201235Z AUTO 00000KT 5SM BR SCT050 20/20 A2997 RMK AO2 T02020199
KJOT - Joliet, Illinois, USA
Distance from station: WSW 5mi, 7km
Updated: Thu, 20-Sep-2018 7:35am CDT
Partly cloudy
Partly cloudy
 Wind from calm
Wind: Calm
Temperature: 72°F , 22°C
Dew Point: 70°F , 21°C
Humidity: 94%
Barometer: 29.97 inHg , 1014.9 hPa
Clouds: Partly cloudy
Visibility: 7 miles , 11 km
Cloud details: Partly cloudy 5500 ft
2018/09/20 12:35 KJOT 201235Z AUTO 00000KT 7SM SCT055 22/21 A2997 RMK AO2 T02170212
 
KC09 - Morris-Washburn, Illinois, USA
Distance from station: WSW 18mi, 29km
Updated: Thu, 20-Sep-2018 7:35am CDT
Mist, Partly cloudy
Mist, Partly cloudy
 Wind from calm
Wind: Calm
Temperature: 66°F , 19°C
Dew Point: 66°F , 19°C
Humidity: 100%
Barometer: 29.96 inHg , 1014.6 hPa
Summary: Mist
Clouds: Partly cloudy
Visibility: 2 miles , 3 km
Cloud details: Partly cloudy 5000 ft
2018/09/20 12:35 KC09 201235Z AUTO 00000KT 2SM BR SCT050 19/19 A2996 RMK AO2 T01880185
KARR - Chicago/Aurora, Illinois, USA
Distance from station: NW 24mi, 39km
Updated: Thu, 20-Sep-2018 6:52am CDT
Mist, Partly cloudy
Mist, Partly cloudy
 Wind from ESE
Wind: ESE 5 mph , 7 km/h
Temperature: 66°F , 19°C
Dew Point: 64°F , 18°C
Humidity: 94%
Barometer: 29.95 inHg , 1014.2 hPa
Summary: Mist
Clouds: Partly cloudy
Visibility: 2 miles , 3 km
Cloud details: Few Clouds 700 ft
Partly cloudy 5000 ft
2018/09/20 11:52 KARR 201152Z 12004KT 2SM BR FEW007 SCT050 19/18 A2995 RMK AO2 LTG DSNT NW SLP140 70002 T01890183 10189 20183 50003
 
KMDW - Chicago, Illinois, USA
Distance from station: NE 25mi, 39km
Updated: Thu, 20-Sep-2018 6:53am CDT
Mostly cloudy
Mostly cloudy
 Wind from W
Wind: W 5 mph , 7 km/h
Temperature: 72°F , 22°C
Dew Point: 66°F , 19°C
Humidity: 83%
Barometer: 29.95 inHg , 1014.2 hPa
Clouds: Mostly cloudy
Visibility: 9 miles , 14 km
Cloud details: Mostly cloudy 8000 ft
Mostly cloudy 25000 ft
2018/09/20 11:53 KMDW 201153Z 26004KT 9SM BKN080 BKN250 22/19 A2995 RMK AO2 SLP136 T02170194 10217 20200 53000
KDPA - Chicago/Dupage, Illinois, USA
Distance from station: NNW 26mi, 42km
Updated: Thu, 20-Sep-2018 7:49am CDT
Mist, Mostly cloudy
Mist, Mostly cloudy
 Wind from N
Wind: N 7 mph , 11 km/h
Temperature: 66°F , 19°C
Dew Point: 64°F , 18°C
Humidity: 94%
Barometer: 29.99 inHg , 1015.6 hPa
Summary: Mist
Clouds: Mostly cloudy
Visibility: 2 1/2 miles , 4 km
Cloud details: Partly cloudy 600 ft
Mostly cloudy 5500 ft
2018/09/20 12:49 KDPA 201249Z 01006KT 2 1/2SM BR SCT006 BKN055 19/18 A2999 RMK AO2 LTG DSNT NE
 
KIGQ - Chicago/Lansing, Illinois, USA
Distance from station: E 30mi, 48km
Updated: Thu, 20-Sep-2018 7:35am CDT
Clear
Clear
 Wind from S
Wind: S 6 mph , 9 km/h
Temperature: 70°F , 21°C
Dew Point: 70°F , 21°C
Humidity: 100%
Barometer: 29.97 inHg , 1014.9 hPa
Clouds: Clear
Visibility: 7 miles , 11 km
2018/09/20 12:35 KIGQ 201235Z AUTO 18005KT 7SM CLR 21/21 A2997 RMK AO2 T02130205
KORD - Chicago O'hare, Illinois, USA
Distance from station: NNE 31mi, 50km
Updated: Thu, 20-Sep-2018 6:51am CDT
Mist, Overcast
Mist, Overcast
 Wind from calm
Wind: Calm
Temperature: 68°F , 20°C
Dew Point: 66°F , 19°C
Humidity: 94%
Barometer: 29.97 inHg , 1014.9 hPa
Summary: Mist
Clouds: Overcast
Visibility: 5 miles , 8 km
Cloud details: Few Clouds 1100 ft
Mostly cloudy 8000 ft
Mostly cloudy 11000 ft
Overcast 25000 ft
2018/09/20 11:51 KORD 201151Z 00000KT 5SM BR FEW011 BKN080 BKN110 OVC250 20/19 A2997 RMK AO2 SLP145 70021 T02000189 10200 20189 53006
 
KGYY - Gary Regional, Indiana, USA
Distance from station: E 36mi, 58km
Updated: Thu, 20-Sep-2018 6:45am CDT
Mostly cloudy
Mostly cloudy
 Wind from S
Wind: S 5 mph , 7 km/h
Temperature: 72°F , 22°C
Dew Point: 70°F , 21°C
Humidity: 94%
Barometer: 29.97 inHg , 1014.9 hPa
Clouds: Mostly cloudy
Visibility: 10 miles , 16 km
Cloud details: Mostly cloudy 25000 ft
2018/09/20 11:45 KGYY 201145Z 18004KT 10SM BKN250 22/21 A2997
KIKK - Kankakee, Illinois, USA
Distance from station: SSE 36mi, 58km
Updated: Thu, 20-Sep-2018 7:35am CDT
Clear
Clear
 Wind from calm
Wind: Calm
Temperature: 70°F , 21°C
Dew Point: 70°F , 21°C
Humidity: 100%
Barometer: 29.99 inHg , 1015.6 hPa
Clouds: Clear
Visibility: 10 miles , 16 km
2018/09/20 12:35 KIKK 201235Z AUTO 00000KT 10SM CLR 21/21 A2999 RMK AO2 T02120209
 
KDKB - De Kalb, Illinois, USA
Distance from station: NW 40mi, 65km
Updated: Thu, 20-Sep-2018 7:35am CDT
Mist, Overcast
Mist, Overcast
 Wind from calm
Wind: Calm
Temperature: 64°F , 18°C
Dew Point: 64°F , 18°C
Humidity: 100%
Barometer: 30.00 inHg , 1015.9 hPa
Summary: Mist
Clouds: Overcast
Visibility: 1 1/2 miles , 2.4 km
Cloud details: Overcast 300 ft
2018/09/20 12:35 KDKB 201235Z AUTO 00000KT 1 1/2SM BR OVC003 18/18 A3000 RMK AO2 T01820182
KPWK - Palwaukee, Illinois, USA
Distance from station: NNE 41mi, 65km
Updated: Thu, 20-Sep-2018 7:38am CDT
Nearby thunderstorm, Mist, Overcast
Nearby thunderstorm, Mist, Overcast
 Wind from calm
Wind: Calm
Temperature: 70°F , 21°C
Dew Point: 66°F , 19°C
Humidity: 88%
Barometer: 29.97 inHg , 1014.9 hPa
Summary: Nearby thunderstorm, Mist
Clouds: Overcast
Visibility: 4 miles , 6 km
Cloud details: Mostly cloudy 300 ft
Overcast 5500 ft
2018/09/20 12:38 KPWK 201238Z AUTO 00000KT 4SM VCTS BR BKN003 OVC055 21/19 A2997 RMK AO2 LTG DSNT N AND NW T02110189